Latest Coastal Weather Observations for Maroochydore

IDQ60701

Issued at 10:05 pm EST Tuesday 21 October 2014 (issued every 10 minutes, with the page automatically refreshed every 10 minutes)

About coastal observations | Map of coastal stations | Coastal observations for QLD | Marine services | Other Formats
Station Details ID: 040861 Name: SUNSHINE COAST AIRPORT Lat: -26.60 Lon: 153.09 Height: 3.3 m
Data from the previous 72 hours. | See also: Recent months at Maroochydore
Date/Time
EST
Temp

°C
Wind Pressure Rain
since 9am
mm
Weather Cloud Vis
km
Sea
Height
m
Swell
Dir
 
Speed
knots
Gust
knots
hPa Trend Height
m
Period
s
Dir
21/10:00pm 19.3 SE 15 19 1026.8 - 4.8 - Partly cloudy 10 - - - -
21/09:36pm 19.4 S 17 27 1026.8 - 4.8 - Partly cloudy 10 - - - -
21/09:30pm 19.5 S 15 18 1026.8 - 4.8 - Partly cloudy 10 - - - -
21/09:11pm 19.5 SE 15 21 1026.7 - 4.8 - Partly cloudy 10 - - - -
21/09:00pm 19.4 SE 15 23 1026.6 - 4.8 - Cloudy 6 - - - -
21/08:55pm 19.1 SE 15 20 1026.7 - 4.8 - Partly cloudy 6 - - - -
21/08:30pm 19.8 SE 16 23 1026.5 - 4.2 - Partly cloudy 10 - - - -
21/08:00pm 19.6 SE 16 22 1026.4 - 4.2 - Partly cloudy 10 - - - -
21/07:30pm 19.6 SE 16 23 1026.2 - 4.2 - Partly cloudy 10 - - - -
21/07:00pm 20.0 SE 15 23 1025.9 - 4.0 - Partly cloudy 10 - - - -
21/06:34pm 19.7 SE 19 27 1025.7 - 4.0 - Partly cloudy 10 - - - -
21/06:30pm 19.6 SSE 19 27 1025.7 - 4.0 - Partly cloudy 10 - - - -
21/06:22pm 19.3 ESE 17 24 1025.7 - 4.0 - Partly cloudy 6 - - - -
21/06:18pm 19.3 SE 17 24 1025.6 - 3.8 - Partly cloudy 7 - - - -
21/06:01pm 19.0 SSE 15 22 1025.5 - 1.2 - Partly cloudy 4 - - - -
21/06:00pm 19.1 SSE 15 22 1025.5 - 1.0 - Cloudy 5 - - - -
21/05:55pm 19.3 SE 17 25 1025.5 - 0.8 - Partly cloudy 6 - - - -
21/05:30pm 20.9 ESE 18 24 1025.1 - 0.2 - Partly cloudy 10 - - - -
21/05:00pm 21.3 SE 17 24 1024.9 - 0.2 - Partly cloudy 10 - - - -
21/04:30pm 21.3 SE 19 26 1024.6 - 0.2 - Partly cloudy 10 - - - -
21/04:00pm 21.8 SE 17 24 1024.4 - 0.2 - Partly cloudy 10 - - - -
21/03:30pm 22.5 SE 18 23 1024.1 - 0.2 - Partly cloudy 10 - - - -
21/03:00pm 24.1 SE 15 21 1024.1 - 0.2 - Mostly clear 10 - - - -
21/02:30pm 23.6 SSE 17 23 1024.1 - 0.2 - Partly cloudy 10 - - - -
21/02:00pm 22.5 SE 14 18 1024.4 - 0.2 - Partly cloudy 10 - - - -
21/01:30pm 21.8 SE 12 16 1024.8 - 0.2 - Partly cloudy 10 - - - -
21/01:00pm 21.6 ESE 11 16 1025.2 - 0.0 - Partly cloudy 10 - - - -
21/12:30pm 21.9 SE 14 17 1025.5 - 0.0 - Partly cloudy 10 - - - -
21/12:00pm 22.5 ESE 11 13 1025.8 - 0.0 - Cloudy 10 - - - -
21/11:30am 22.8 SSE 11 15 1026.2 - 0.0 - Partly cloudy 10 - - - -
21/11:00am 21.1 SE 10 14 1026.5 - 0.0 - Partly cloudy 10 - - - -
21/10:30am 21.3 SSE 11 15 1026.8 - 0.0 - Partly cloudy 10 - - - -
21/10:00am 20.9 SSE 13 21 1026.9 - 0.0 - Partly cloudy 10 - - - -
21/09:53am 22.2 SSE 13 19 1026.8 - 0.0 - Partly cloudy 10 - - - -
21/09:40am 21.5 SE 11 19 1026.8 - 0.0 - Partly cloudy 10 - - - -
21/09:30am 20.0 SSE 12 15 1026.9 - 0.0 - Partly cloudy 10 - - - -
21/09:00am 21.5 SSE 10 13 1026.9 - 0.0 - Cloudy 10 - - - -
21/08:30am 21.6 S 8 11 1026.8 - 0.0 - Cloudy 10 - - - -
21/08:00am 20.3 SSW 8 10 1026.8 - 0.0 - Partly cloudy 10 - - - -
21/07:30am 19.6 SSW 11 15 1026.4 - 0.0 - Cloudy 10 - - - -
21/07:00am 21.2 ESE 10 13 1026.0 - 0.0 - Cloudy 10 - - - -
21/06:30am 21.2 ESE 10 13 1025.6 - 0.0 - Partly cloudy 10 - - - -
21/06:00am 21.2 ESE 9 13 1025.3 - 0.0 - Cloudy 10 - - - -
21/05:30am 20.5 SE 10 13 1025.1 - 0.0 - Partly cloudy 10 - - - -
21/05:00am 20.2 ESE 10 14 1024.7 - 0.0 - - 10 - - - -
21/04:30am 20.1 SE 11 15 1024.4 - 0.0 - - 10 - - - -
21/04:00am 20.2 ESE 11 15 1024.4 - 0.0 - - 10 - - - -
21/03:30am 20.3 ESE 12 16 1024.5 - 0.0 - Partly cloudy 10 - - - -
21/03:00am 20.3 ESE 11 15 1024.8 - 0.0 - Mostly clear 10 - - - -
21/02:30am 20.2 ESE 10 17 1024.8 - 0.0 - Partly cloudy 10 - - - -
21/02:00am 20.4 ESE 11 14 1025.0 - 0.0 - Partly cloudy 10 - - - -
21/01:30am 20.5 ESE 11 16 1025.2 - 0.0 - Partly cloudy 10 - - - -
21/01:00am 20.4 ESE 12 18 1025.6 - 0.0 - - 10 - - - -
21/12:30am 20.4 SE 11 16 1025.8 - 0.0 - - 10 - - - -
21/12:00am 20.5 ESE 13 16 1026.1 - 0.0 - Mostly clear 10 - - - -
 
Date/Time
EST
Temp

°C
Wind Pressure Rain
since 9am
mm
Weather Cloud Vis
km
Sea
Height
m
Swell
Dir
 
Speed
knots
Gust
knots
hPa Trend Height
m
Period
s
Dir
20/11:30pm 20.8 ESE 13 17 1026.3 - 0.0 - Partly cloudy 10 - - - -
20/11:00pm 20.7 ESE 12 16 1026.4 - 0.0 - Partly cloudy 10 - - - -
20/10:30pm 20.7 ESE 13 17 1026.5 - 0.0 - Partly cloudy 10 - - - -
20/10:00pm 20.8 ESE 11 15 1026.5 - 0.0 - Partly cloudy 10 - - - -
20/09:30pm 20.5 ESE 11 15 1026.2 - 0.0 - Partly cloudy 10 - - - -
20/09:00pm 20.6 ESE 10 14 1026.0 - 0.0 - - 10 - - - -
20/08:30pm 20.7 ESE 9 12 1025.7 - 0.0 - - 10 - - - -
20/08:00pm 20.6 ESE 9 12 1025.2 - 0.0 - - 10 - - - -
20/07:30pm 20.7 ESE 9 12 1024.7 - 0.0 - - 10 - - - -
20/07:00pm 20.6 ESE 8 11 1024.3 - 0.0 - - 10 - - - -
20/06:30pm 20.3 E 6 8 1023.9 - 0.0 - - 10 - - - -
20/06:00pm 20.4 E 6 9 1023.4 - 0.0 - - 10 - - - -
20/05:30pm 21.0 E 7 10 1022.9 - 0.0 - - 10 - - - -
20/05:00pm 21.9 E 8 11 1022.7 - 0.0 - - 10 - - - -
20/04:30pm 22.4 ENE 8 9 1022.4 - 0.0 - - 10 - - - -
20/04:00pm 22.7 E 9 11 1022.3 - 0.0 - - 10 - - - -
20/03:30pm 23.3 ENE 9 12 1022.2 - 0.0 - - 10 - - - -
20/03:00pm 23.5 ENE 9 11 1022.1 - 0.0 - - 10 - - - -
20/02:30pm 23.7 ENE 9 11 1022.4 - 0.0 - - 10 - - - -
20/02:00pm 24.4 ENE 9 12 1022.5 - 0.0 - - 10 - - - -
20/01:30pm 24.2 ENE 9 11 1022.9 - 0.0 - - 10 - - - -
20/01:00pm 23.4 E 9 11 1023.1 - 0.0 - - 10 - - - -
20/12:30pm 23.7 E 8 11 1023.5 - 0.0 - - 10 - - - -
20/12:00pm 23.9 E 8 11 1024.0 - 0.0 - - 10 - - - -
20/11:30am 24.0 E 7 10 1024.5 - 0.0 - - 10 - - - -
20/11:00am 23.7 E 6 9 1024.9 - 0.0 - - 10 - - - -
20/10:30am 22.8 ESE 7 11 1025.2 - 0.0 - - 10 - - - -
20/10:00am 22.6 E 5 8 1025.6 - 0.0 - - 10 - - - -
20/09:30am 22.7 E 5 9 1025.8 - 0.0 - - 10 - - - -
20/09:00am 22.6 ESE 6 10 1026.0 - 0.0 - - 10 - - - -
20/08:30am 22.3 ESE 6 9 1025.9 - 0.0 - - 10 - - - -
20/08:00am 21.8 SE 6 8 1025.8 - 0.0 - - 10 - - - -
20/07:30am 21.3 S 5 8 1025.6 - 0.0 - - 10 - - - -
20/07:00am 18.9 SSW 4 6 1025.4 - 0.0 - - 10 - - - -
20/06:30am 16.4 WSW 4 5 1025.2 - 0.0 - - 10 - - - -
20/06:00am 14.2 WSW 4 5 1024.8 - 0.0 - - 10 - - - -
20/05:30am 13.0 WSW 4 5 1024.6 - 0.0 - - 10 - - - -
20/05:00am 13.1 WSW 3 4 1024.4 - 0.0 - - 10 - - - -
20/04:30am 13.5 SW 3 4 1024.2 - 0.0 - - 10 - - - -
20/04:00am 13.8 SW 4 6 1024.1 - 0.0 - - 10 - - - -
20/03:30am 13.8 SW 5 6 1024.0 - 0.0 - - 10 - - - -
20/03:00am 14.8 WSW 3 4 1024.1 - 0.0 - - 10 - - - -
20/02:30am 15.5 SW 6 8 1024.2 - 0.0 - Partly cloudy 10 - - - -
20/02:00am 16.3 SW 4 7 1024.3 - 0.0 - Partly cloudy 10 - - - -
20/01:30am 17.2 S 4 5 1024.6 - 0.0 - Partly cloudy 10 - - - -
20/01:00am 18.9 ESE 6 8 1024.9 - 0.0 - Partly cloudy 10 - - - -
20/12:30am 19.1 ESE 6 9 1025.4 - 0.0 - Partly cloudy 10 - - - -
20/12:00am 19.7 E 7 10 1025.6 - 0.0 - Partly cloudy 10 - - - -
 
Date/Time
EST
Temp

°C
Wind Pressure Rain
since 9am
mm
Weather Cloud Vis
km
Sea
Height
m
Swell
Dir
 
Speed
knots
Gust
knots
hPa Trend Height
m
Period
s
Dir
19/11:30pm 19.8 E 9 13 1025.8 - 0.0 - Partly cloudy 10 - - - -
19/11:00pm 19.9 E 9 11 1026.0 - 0.0 - Partly cloudy 10 - - - -
19/10:30pm 20.1 E 10 13 1026.2 - 0.0 - Cloudy 10 - - - -
19/10:00pm 20.3 E 10 13 1026.3 - 0.0 - Cloudy 10 - - - -
19/09:30pm 20.4 E 10 14 1026.2 - 0.0 - Cloudy 10 - - - -
19/09:00pm 20.3 E 9 14 1026.1 - 0.0 - Mostly cloudy 10 - - - -
19/08:30pm 20.3 E 10 14 1026.2 - 0.0 - Partly cloudy 10 - - - -
19/08:00pm 20.5 ESE 10 13 1025.8 - 0.0 - Cloudy 10 - - - -
19/07:30pm 20.6 ESE 10 14 1025.7 - 0.0 - Partly cloudy 10 - - - -
19/07:00pm 20.4 ESE 10 13 1025.4 - 0.0 - Partly cloudy 10 - - - -
19/06:30pm 20.7 ESE 10 14 1025.0 - 0.0 - Partly cloudy 10 - - - -
19/06:00pm 20.4 ESE 10 14 1024.6 - 0.0 - - 10 - - - -
19/05:30pm 20.8 SE 11 14 1024.3 - 0.0 - - 10 - - - -
19/05:00pm 21.4 ESE 12 15 1024.0 - 0.0 - - 10 - - - -
19/04:30pm 22.0 ESE 12 15 1023.7 - 0.0 - - 10 - - - -
19/04:00pm 22.4 ESE 11 14 1023.6 - 0.0 - - 10 - - - -
19/03:30pm 22.9 ESE 12 16 1023.7 - 0.0 - - 10 - - - -
19/03:00pm 22.9 ESE 13 16 1023.7 - 0.0 - - 10 - - - -
19/02:30pm 23.8 ESE 12 16 1024.1 - 0.0 - - 10 - - - -
19/02:00pm 23.8 ESE 13 16 1024.3 - 0.0 - - 10 - - - -
19/01:30pm 23.6 ESE 12 16 1024.7 - 0.0 - - 10 - - - -
19/01:00pm 24.1 SE 13 16 1025.0 - 0.0 - - 10 - - - -
19/12:30pm 24.2 SE 12 16 1025.4 - 0.0 - - 10 - - - -
19/12:00pm 23.8 ESE 13 17 1025.8 - 0.0 - - 10 - - - -
19/11:30am 23.6 ESE 12 15 1026.1 - 0.0 - - 10 - - - -
19/11:00am 23.7 ESE 12 16 1026.4 - 0.0 - - 10 - - - -
19/10:30am 23.7 ESE 12 16 1026.8 - 0.0 - - 10 - - - -
19/10:00am 23.3 ESE 13 18 1027.0 - 0.0 - Partly cloudy 10 - - - -
19/09:30am 22.4 ESE 11 15 1027.3 - 0.0 - Partly cloudy 10 - - - -
19/09:00am 22.0 ESE 11 14 1027.5 - 1.8 - Cloudy 10 - - - -
19/08:30am 18.9 S 9 11 1027.5 - 1.8 - Partly cloudy 10 - - - -
19/08:00am 19.0 S 9 11 1027.5 - 1.4 - Partly cloudy 10 - - - -
19/07:30am 19.0 SSW 8 11 1027.3 - 1.4 - Partly cloudy 10 - - - -
19/07:00am 18.0 SW 5 8 1027.2 - 1.4 - Partly cloudy 10 - - - -
19/06:30am 17.4 S 7 8 1026.9 - 1.4 - Partly cloudy 10 - - - -
19/06:00am 16.8 SSW 6 8 1026.5 - 1.4 - Cloudy 10 - - - -
19/05:30am 16.5 SW 5 7 1025.9 - 1.4 - Partly cloudy 10 - - - -
19/05:00am 16.5 SW 5 6 1025.7 - 1.4 - Partly cloudy 10 - - - -
19/04:30am 16.8 SW 7 10 1025.4 - 1.4 - Partly cloudy 10 - - - -
19/04:00am 17.0 SSW 5 6 1025.2 - 1.4 - Partly cloudy 10 - - - -
19/03:30am 17.1 SSW 5 7 1025.0 - 1.4 - Partly cloudy 10 - - - -
19/03:00am 17.0 S 11 16 1024.9 - 1.4 - Cloudy 10 - - - -
19/02:30am 18.0 S 10 13 1024.9 - 0.8 - Partly cloudy 10 - - - -
19/02:00am 19.9 ESE 12 18 1024.7 - 0.8 - Partly cloudy 10 - - - -
19/01:30am 19.4 SE 11 15 1024.9 - 0.8 - Partly cloudy 10 - - - -
19/01:00am 17.4 SW 6 9 1025.4 - 0.8 - Partly cloudy 10 - - - -
19/12:30am 17.8 S 8 12 1025.8 - 0.8 - Partly cloudy 10 - - - -
19/12:00am 18.6 SSE 15 21 1026.1 - 0.0 - Cloudy 10 - - - -
 
Date/Time
EST
Temp

°C
Wind Pressure Rain
since 9am
mm
Weather Cloud Vis
km
Sea
Height
m
Swell
Dir
 
Speed
knots
Gust
knots
hPa Trend Height
m
Period
s
Dir
18/11:30pm 20.0 ESE 10 14 1026.2 - 0.0 - Partly cloudy 10 - - - -
18/11:00pm 19.2 ESE 4 6 1026.4 - 0.0 - Partly cloudy 10 - - - -
18/10:30pm 19.0 E 10 14 1026.5 - 0.0 - Partly cloudy 10 - - - -

Other Formats:

Comma delimited format used in spreadsheet applications
http://www.bom.gov.au/fwo/IDQ60701/IDQ60701.94569.axf

JavaScript Object Notation format (JSON) in row-major order
http://www.bom.gov.au/fwo/IDQ60701/IDQ60701.94569.json